createdAt,value
2023-04-15T00:03:21.713Z,100.00
2023-04-15T00:06:49.458Z,100.00
2023-04-15T00:09:59.564Z,100.00
2023-04-15T00:13:27.594Z,100.00
2023-04-15T00:16:55.517Z,100.00
2023-04-15T00:20:23.338Z,100.00
2023-04-15T00:23:50.966Z,100.00
2023-04-15T00:27:19.451Z,100.00
2023-04-15T00:30:47.393Z,100.00
2023-04-15T00:34:14.950Z,100.00
2023-04-15T00:37:23.646Z,100.00
2023-04-15T00:40:32.346Z,100.00
2023-04-15T00:43:40.960Z,100.00
2023-04-15T00:46:52.786Z,100.00
2023-04-15T00:50:02.373Z,100.00
2023-04-15T00:53:09.973Z,100.00
2023-04-15T00:56:37.735Z,100.00
2023-04-15T00:59:48.255Z,100.00
2023-04-15T01:02:56.617Z,100.00
2023-04-15T01:06:24.152Z,100.00
2023-04-15T01:09:15.013Z,100.00
2023-04-15T01:12:23.726Z,100.00
2023-04-15T01:15:51.227Z,100.00
2023-04-15T01:19:18.741Z,100.00
2023-04-15T01:22:46.364Z,100.00
2023-04-15T01:26:14.137Z,100.00
2023-04-15T01:29:23.062Z,100.00
2023-04-15T01:32:50.681Z,100.00
2023-04-15T01:36:06.377Z,100.00
2023-04-15T01:39:15.590Z,100.00
2023-04-15T01:42:43.600Z,100.00
2023-04-15T01:45:52.646Z,100.00
2023-04-15T01:49:20.266Z,100.00
2023-04-15T01:52:28.179Z,100.00
2023-04-15T01:55:36.595Z,100.00
2023-04-15T01:58:06.975Z,100.00
2023-04-15T02:01:34.612Z,100.00
2023-04-15T02:05:02.272Z,100.00
2023-04-15T02:08:29.870Z,100.00
2023-04-15T02:11:57.738Z,100.00
2023-04-15T02:15:26.109Z,100.00
2023-04-15T02:18:53.937Z,100.00
2023-04-15T02:22:22.088Z,100.00
2023-04-15T02:25:54.110Z,100.00
2023-04-15T02:29:17.015Z,100.00
2023-04-15T02:32:44.838Z,100.00
2023-04-15T02:36:00.466Z,100.00
2023-04-15T02:39:27.915Z,100.00
2023-04-15T02:42:39.334Z,100.00
2023-04-15T02:46:06.890Z,100.00
2023-04-15T02:49:34.413Z,100.00
2023-04-15T02:53:02.124Z,100.00
2023-04-15T02:56:29.678Z,100.00
2023-04-15T02:59:57.119Z,100.00
2023-04-15T03:03:24.953Z,100.00
2023-04-15T03:06:52.444Z,100.00
2023-04-15T03:10:20.209Z,100.00
2023-04-15T03:13:48.054Z,100.00
2023-04-15T03:17:16.216Z,100.00
2023-04-15T03:20:34.763Z,100.00
2023-04-15T03:23:46.752Z,100.00
2023-04-15T03:26:54.469Z,100.00
2023-04-15T03:30:22.558Z,100.00
2023-04-15T03:33:50.091Z,100.00
2023-04-15T03:37:17.792Z,100.00
2023-04-15T03:40:45.533Z,100.00
2023-04-15T03:44:13.027Z,100.00
2023-04-15T03:47:40.616Z,100.00
2023-04-15T03:50:49.191Z,100.00
2023-04-15T03:53:38.029Z,100.00
2023-04-15T03:57:05.733Z,100.00
2023-04-15T04:00:33.388Z,100.00
2023-04-15T04:04:02.299Z,100.00
2023-04-15T04:07:29.808Z,100.00
2023-04-15T04:10:57.435Z,100.00
2023-04-15T04:14:06.212Z,100.00
2023-04-15T04:17:33.676Z,100.00
2023-04-15T04:20:49.608Z,100.00
2023-04-15T04:24:17.365Z,100.00
2023-04-15T04:27:25.435Z,100.00
2023-04-15T04:30:34.266Z,100.00
2023-04-15T04:34:02.223Z,100.00
2023-04-15T04:37:13.701Z,100.00
2023-04-15T04:40:21.812Z,100.00
2023-04-15T04:43:12.428Z,100.00
2023-04-15T04:46:40.099Z,100.00
2023-04-15T04:50:07.725Z,100.00
2023-04-15T04:53:35.486Z,100.00
2023-04-15T04:57:03.109Z,100.00
2023-04-15T05:00:30.774Z,100.00
2023-04-15T05:03:09.644Z,100.00
2023-04-15T05:06:37.468Z,100.00
2023-04-15T05:10:05.079Z,100.00
2023-04-15T05:13:32.874Z,100.00
2023-04-15T05:16:49.983Z,100.00
2023-04-15T05:19:59.580Z,100.00
2023-04-15T05:23:27.143Z,100.00
2023-04-15T05:26:54.626Z,100.00
2023-04-15T05:29:55.471Z,100.00
2023-04-15T05:33:22.997Z,100.00
2023-04-15T05:36:31.693Z,100.00
2023-04-15T05:39:59.545Z,100.00
2023-04-15T05:43:08.063Z,100.00
2023-04-15T05:46:23.634Z,100.00
2023-04-15T05:49:33.177Z,100.00
2023-04-15T05:52:41.672Z,100.00
2023-04-15T05:56:09.446Z,100.00
2023-04-15T05:59:17.984Z,100.00
2023-04-15T06:02:34.450Z,100.00
2023-04-15T06:06:01.923Z,100.00
2023-04-15T06:09:29.714Z,100.00
2023-04-15T06:12:57.418Z,100.00
2023-04-15T06:16:20.619Z,100.00
2023-04-15T06:19:48.300Z,100.00
2023-04-15T06:23:16.060Z,100.00
2023-04-15T06:26:43.732Z,100.00
2023-04-15T06:30:11.561Z,100.00
2023-04-15T06:33:39.074Z,100.00
2023-04-15T06:37:06.692Z,98.39
2023-04-15T06:40:34.126Z,99.43
2023-04-15T06:44:01.813Z,97.96
2023-04-15T06:46:50.422Z,97.49
2023-04-15T06:50:18.018Z,97.72
2023-04-15T06:53:45.503Z,97.02
2023-04-15T06:57:13.160Z,97.13
2023-04-15T07:00:40.764Z,92.51
2023-04-15T07:03:45.676Z,92.94
2023-04-15T07:06:42.938Z,89.30
2023-04-15T07:10:10.523Z,84.74
2023-04-15T07:13:38.187Z,83.49
2023-04-15T07:17:05.816Z,79.25
2023-04-15T07:19:57.925Z,79.42
2023-04-15T07:23:25.817Z,77.46
2023-04-15T07:26:53.431Z,77.61
2023-04-15T07:30:21.408Z,75.71
2023-04-15T07:33:48.957Z,74.11
2023-04-15T07:36:57.702Z,72.87
2023-04-15T07:40:20.994Z,71.38
2023-04-15T07:43:48.582Z,70.67
2023-04-15T07:47:16.114Z,70.77
2023-04-15T07:50:40.511Z,69.97
2023-04-15T07:54:08.152Z,70.19
2023-04-15T07:57:35.629Z,70.98
2023-04-15T08:01:03.172Z,70.67
2023-04-15T08:04:30.715Z,72.44
2023-04-15T08:07:58.329Z,70.41
2023-04-15T08:11:06.932Z,69.43
2023-04-15T08:14:34.470Z,70.10
2023-04-15T08:17:43.225Z,70.94
2023-04-15T08:20:52.003Z,80.97
2023-04-15T08:24:20.641Z,69.90
2023-04-15T08:27:36.265Z,70.92
2023-04-15T08:31:04.034Z,68.69
2023-04-15T08:34:31.664Z,72.77
2023-04-15T08:37:39.330Z,70.37
2023-04-15T08:41:08.357Z,65.87
2023-04-15T08:44:35.991Z,64.34
2023-04-15T08:47:25.073Z,63.67
2023-04-15T08:50:52.701Z,65.07
2023-04-15T08:54:20.218Z,60.73
2023-04-15T08:57:47.952Z,60.36
2023-04-15T09:01:15.421Z,59.43
2023-04-15T09:04:43.001Z,55.99
2023-04-15T09:07:58.286Z,56.24
2023-04-15T09:11:25.717Z,56.21
2023-04-15T09:14:53.472Z,57.45
2023-04-15T09:18:18.380Z,59.32
2023-04-15T09:21:41.611Z,58.78
2023-04-15T09:24:50.597Z,60.79
2023-04-15T09:28:18.160Z,59.61
2023-04-15T09:31:45.947Z,58.12
2023-04-15T09:35:13.510Z,65.15
2023-04-15T09:38:41.229Z,55.81
2023-04-15T09:42:09.148Z,57.57
2023-04-15T09:45:36.734Z,53.75
2023-04-15T09:49:06.085Z,59.11
2023-04-15T09:52:34.282Z,56.12
2023-04-15T09:56:02.111Z,54.65
2023-04-15T09:59:29.940Z,57.32
2023-04-15T10:02:57.838Z,61.74
2023-04-15T10:06:25.628Z,57.59
2023-04-15T10:09:53.340Z,54.80
2023-04-15T10:13:20.975Z,51.99
2023-04-15T10:16:10.494Z,52.18
2023-04-15T10:19:38.236Z,49.73
2023-04-15T10:23:08.355Z,50.94
2023-04-15T10:26:14.205Z,49.09
2023-04-15T10:29:22.612Z,50.36
2023-04-15T10:32:31.098Z,49.20
2023-04-15T10:35:58.891Z,48.04
2023-04-15T10:39:26.538Z,49.33
2023-04-15T10:41:56.201Z,46.50
2023-04-15T10:45:23.734Z,46.06
2023-04-15T10:48:51.511Z,46.18
2023-04-15T10:52:18.973Z,45.67
2023-04-15T10:55:47.059Z,44.71
2023-04-15T10:59:14.761Z,44.91
2023-04-15T11:02:42.464Z,49.23
2023-04-15T11:06:09.808Z,44.99
2023-04-15T11:09:37.374Z,44.06
2023-04-15T11:13:04.762Z,44.95
2023-04-15T11:16:32.413Z,44.07
2023-04-15T11:19:59.917Z,43.42
2023-04-15T11:23:27.398Z,43.45
2023-04-15T11:26:37.462Z,42.85
2023-04-15T11:29:27.186Z,41.70
2023-04-15T11:32:35.688Z,42.86
2023-04-15T11:35:44.293Z,44.91
2023-04-15T11:39:11.834Z,42.30
2023-04-15T11:42:49.136Z,42.41
2023-04-15T11:46:07.360Z,42.56
2023-04-15T11:49:15.930Z,42.57
2023-04-15T11:52:43.548Z,44.29
2023-04-15T11:55:34.464Z,44.31
2023-04-15T11:58:44.468Z,44.09
2023-04-15T12:02:12.303Z,44.86
2023-04-15T12:05:05.258Z,45.80
2023-04-15T12:08:32.677Z,45.40
2023-04-15T12:12:00.382Z,43.49
2023-04-15T12:15:27.932Z,42.74
2023-04-15T12:18:44.593Z,44.99
2023-04-15T12:22:12.490Z,43.38
2023-04-15T12:25:20.500Z,44.76
2023-04-15T12:28:17.274Z,43.13
2023-04-15T12:31:45.159Z,43.95
2023-04-15T12:35:12.702Z,43.41
2023-04-15T12:38:40.363Z,41.06
2023-04-15T12:41:48.432Z,40.24
2023-04-15T12:45:15.995Z,40.95
2023-04-15T12:48:24.081Z,38.16
2023-04-15T12:51:51.807Z,37.36
2023-04-15T12:55:19.330Z,36.92
2023-04-15T12:58:46.852Z,35.73
2023-04-15T13:02:14.734Z,35.93
2023-04-15T13:05:43.206Z,36.01
2023-04-15T13:09:12.224Z,35.96
2023-04-15T13:12:39.830Z,32.89
2023-04-15T13:15:32.403Z,32.20
2023-04-15T13:18:56.327Z,32.75
2023-04-15T13:22:04.991Z,32.25
2023-04-15T13:25:32.817Z,31.90
2023-04-15T13:29:00.726Z,32.41
2023-04-15T13:32:28.491Z,32.74
2023-04-15T13:35:56.028Z,33.52
2023-04-15T13:38:44.921Z,34.24
2023-04-15T13:41:53.097Z,34.65
2023-04-15T13:45:00.976Z,36.00
2023-04-15T13:48:28.705Z,33.61
2023-04-15T13:51:56.319Z,34.64
2023-04-15T13:55:21.610Z,33.50
2023-04-15T13:58:31.425Z,33.74
2023-04-15T14:01:31.050Z,32.68
2023-04-15T14:04:38.975Z,32.32
2023-04-15T14:07:47.428Z,32.12
2023-04-15T14:11:23.654Z,31.27
2023-04-15T14:14:51.294Z,29.89
2023-04-15T14:17:59.519Z,28.36
2023-04-15T14:21:07.068Z,28.54
2023-04-15T14:23:56.446Z,27.18
2023-04-15T14:27:04.987Z,27.82
2023-04-15T14:30:12.991Z,26.93
2023-04-15T14:33:20.737Z,26.78
2023-04-15T14:36:48.969Z,26.53
2023-04-15T14:39:37.839Z,26.91
2023-04-15T14:43:05.410Z,25.94
2023-04-15T14:46:33.117Z,25.63
2023-04-15T14:49:21.229Z,25.87
2023-04-15T14:52:50.211Z,25.78
2023-04-15T14:56:17.973Z,24.77
2023-04-15T14:59:45.491Z,25.00
2023-04-15T15:03:13.197Z,25.42
2023-04-15T15:06:20.810Z,24.54
2023-04-15T15:09:48.396Z,24.93
2023-04-15T15:12:21.272Z,24.06
2023-04-15T15:15:31.014Z,24.72
2023-04-15T15:18:58.575Z,23.39
2023-04-15T15:22:06.912Z,23.56
2023-04-15T15:25:14.461Z,23.03
2023-04-15T15:28:22.022Z,23.67
2023-04-15T15:31:30.045Z,23.23
2023-04-15T15:34:57.678Z,23.42
2023-04-15T15:38:25.169Z,22.62
2023-04-15T15:41:15.603Z,22.92
2023-04-15T15:44:07.535Z,22.54
2023-04-15T15:47:15.286Z,22.47
2023-04-15T15:50:43.039Z,22.99
2023-04-15T15:54:10.740Z,22.92
2023-04-15T15:57:00.181Z,22.16
2023-04-15T16:00:27.866Z,21.45
2023-04-15T16:03:55.723Z,21.69
2023-04-15T16:07:23.104Z,21.84
2023-04-15T16:10:11.109Z,22.00
2023-04-15T16:13:19.782Z,21.97
2023-04-15T16:16:29.311Z,22.22
2023-04-15T16:19:37.473Z,23.14
2023-04-15T16:22:52.800Z,23.39
2023-04-15T16:26:01.317Z,23.12
2023-04-15T16:28:50.012Z,23.21
2023-04-15T16:31:57.500Z,23.85
2023-04-15T16:35:05.578Z,24.80
2023-04-15T16:37:54.657Z,25.63
2023-04-15T16:41:22.170Z,27.26
2023-04-15T16:44:47.568Z,28.18
2023-04-15T16:48:15.312Z,29.82
2023-04-15T16:51:31.408Z,29.78
2023-04-15T16:54:39.235Z,30.22
2023-04-15T16:58:08.434Z,32.12
2023-04-15T17:01:34.394Z,33.26
2023-04-15T17:04:12.219Z,34.15
2023-04-15T17:07:36.211Z,36.16
2023-04-15T17:10:52.304Z,37.66
2023-04-15T17:14:18.207Z,39.29
2023-04-15T17:17:27.108Z,40.27
2023-04-15T17:20:34.995Z,41.15
2023-04-15T17:23:44.782Z,42.10
2023-04-15T17:27:12.343Z,43.33
2023-04-15T17:30:39.980Z,43.97
2023-04-15T17:34:10.065Z,44.95
2023-04-15T17:37:03.104Z,45.59
2023-04-15T17:40:30.761Z,46.18
2023-04-15T17:43:58.286Z,46.40
2023-04-15T17:47:26.050Z,47.07
2023-04-15T17:50:41.903Z,49.13
2023-04-15T17:53:32.403Z,48.59
2023-04-15T17:56:41.017Z,48.86
2023-04-15T18:00:08.636Z,50.96
2023-04-15T18:03:00.601Z,50.61
2023-04-15T18:06:16.188Z,50.27
2023-04-15T18:09:43.708Z,50.70
2023-04-15T18:13:11.310Z,52.26
2023-04-15T18:16:19.854Z,53.14
2023-04-15T18:19:27.546Z,53.86
2023-04-15T18:22:36.226Z,54.43
2023-04-15T18:26:03.736Z,55.23
2023-04-15T18:29:15.465Z,56.28
2023-04-15T18:32:23.246Z,56.86
2023-04-15T18:35:13.066Z,57.58
2023-04-15T18:38:40.593Z,58.83
2023-04-15T18:42:08.209Z,59.87
2023-04-15T18:45:36.102Z,60.53
2023-04-15T18:49:03.993Z,62.55
2023-04-15T18:52:31.542Z,63.87
2023-04-15T18:55:59.130Z,65.43
2023-04-15T18:59:25.004Z,66.82
2023-04-15T19:02:16.776Z,67.24
2023-04-15T19:05:44.259Z,67.36
2023-04-15T19:08:33.795Z,68.00
2023-04-15T19:12:01.292Z,68.37
2023-04-15T19:15:28.926Z,68.27
2023-04-15T19:18:56.472Z,68.12
2023-04-15T19:22:24.105Z,68.24
2023-04-15T19:25:51.654Z,68.04
2023-04-15T19:29:19.282Z,67.16
2023-04-15T19:32:15.923Z,67.11
2023-04-15T19:35:23.838Z,65.96
2023-04-15T19:38:51.279Z,63.12
2023-04-15T19:41:42.118Z,65.10
2023-04-15T19:44:51.154Z,64.54
2023-04-15T19:48:18.842Z,62.72
2023-04-15T19:51:46.275Z,62.36
2023-04-15T19:55:13.859Z,62.01
2023-04-15T19:58:41.320Z,62.90
2023-04-15T20:02:09.306Z,60.44
2023-04-15T20:04:59.357Z,60.23
2023-04-15T20:08:15.024Z,60.34
2023-04-15T20:11:24.747Z,60.18
2023-04-15T20:14:34.413Z,62.88
2023-04-15T20:17:44.032Z,61.91
2023-04-15T20:20:47.747Z,62.39
2023-04-15T20:24:04.057Z,63.74
2023-04-15T20:27:31.527Z,62.54
2023-04-15T20:30:40.188Z,62.05
2023-04-15T20:33:48.834Z,63.96
2023-04-15T20:37:04.475Z,64.28
2023-04-15T20:40:31.999Z,65.50
2023-04-15T20:43:17.211Z,65.91
2023-04-15T20:46:32.323Z,65.55
2023-04-15T20:49:22.004Z,67.47
2023-04-15T20:52:49.707Z,67.10
2023-04-15T20:55:58.257Z,68.38
2023-04-15T20:59:25.976Z,69.71
2023-04-15T21:02:53.963Z,69.02
2023-04-15T21:06:05.609Z,68.99
2023-04-15T21:08:49.870Z,67.78
2023-04-15T21:12:05.956Z,69.40
2023-04-15T21:15:33.526Z,69.24
2023-04-15T21:18:42.017Z,69.56
2023-04-15T21:21:32.846Z,69.47
2023-04-15T21:25:00.570Z,69.47
2023-04-15T21:28:28.197Z,69.72
2023-04-15T21:31:19.534Z,68.95
2023-04-15T21:34:47.102Z,68.73
2023-04-15T21:38:14.884Z,67.26
2023-04-15T21:41:42.427Z,66.84
2023-04-15T21:44:37.724Z,66.59
2023-04-15T21:47:56.849Z,67.88
2023-04-15T21:51:14.375Z,69.25
2023-04-15T21:54:30.050Z,70.06
2023-04-15T21:57:57.647Z,70.84
2023-04-15T22:01:02.341Z,69.90
2023-04-15T22:04:30.099Z,70.57
2023-04-15T22:07:53.339Z,70.94
2023-04-15T22:11:20.951Z,70.61
2023-04-15T22:14:29.734Z,69.43
2023-04-15T22:17:57.309Z,70.30
2023-04-15T22:21:24.824Z,70.84
2023-04-15T22:24:39.275Z,71.42
2023-04-15T22:27:58.079Z,72.27
2023-04-15T22:31:21.222Z,73.48
2023-04-15T22:34:29.948Z,71.74
2023-04-15T22:37:34.628Z,72.69
2023-04-15T22:40:44.287Z,72.72
2023-04-15T22:43:54.002Z,72.69
2023-04-15T22:47:22.579Z,73.23
2023-04-15T22:50:50.123Z,75.07
2023-04-15T22:53:59.042Z,74.36
2023-04-15T22:57:26.712Z,74.15
2023-04-15T23:00:35.279Z,73.66
2023-04-15T23:03:56.328Z,74.14
2023-04-15T23:07:11.624Z,73.48
2023-04-15T23:10:39.365Z,74.32
2023-04-15T23:14:07.100Z,74.96
2023-04-15T23:17:15.665Z,75.21
2023-04-15T23:20:24.263Z,74.99
2023-04-15T23:23:32.797Z,75.18
2023-04-15T23:27:00.324Z,75.66
2023-04-15T23:30:28.207Z,74.94
2023-04-15T23:33:37.914Z,75.47
2023-04-15T23:36:47.058Z,75.93
2023-04-15T23:40:14.679Z,77.49
2023-04-15T23:43:04.224Z,77.05
2023-04-15T23:46:31.795Z,78.18
2023-04-15T23:49:06.210Z,78.77
2023-04-15T23:52:17.322Z,79.15
2023-04-15T23:55:29.179Z,79.56
2023-04-15T23:58:56.606Z,80.67
